createdAt,value
2023-04-26T00:01:58.738Z,7.00
2023-04-26T00:04:25.874Z,6.90
2023-04-26T00:06:52.773Z,6.90
2023-04-26T00:09:19.707Z,6.90
2023-04-26T00:11:46.677Z,6.90
2023-04-26T00:14:13.724Z,6.90
2023-04-26T00:16:40.490Z,6.80
2023-04-26T00:19:07.282Z,6.80
2023-04-26T00:21:34.123Z,6.80
2023-04-26T00:24:00.892Z,6.80
2023-04-26T00:26:27.684Z,6.70
2023-04-26T00:28:54.806Z,6.70
2023-04-26T00:31:21.887Z,6.70
2023-04-26T00:33:48.731Z,6.70
2023-04-26T00:36:19.137Z,6.70
2023-04-26T00:38:46.795Z,6.70
2023-04-26T00:41:13.869Z,6.70
2023-04-26T00:43:41.094Z,6.70
2023-04-26T00:46:11.368Z,6.70
2023-04-26T00:48:38.205Z,6.70
2023-04-26T00:51:06.082Z,6.70
2023-04-26T00:53:34.147Z,6.70
2023-04-26T00:56:01.038Z,6.70
2023-04-26T00:58:27.985Z,6.70
2023-04-26T01:00:55.314Z,6.60
2023-04-26T01:03:22.182Z,6.60
2023-04-26T01:05:49.138Z,6.60
2023-04-26T01:08:20.610Z,6.70
2023-04-26T01:10:48.535Z,6.60
2023-04-26T01:13:15.636Z,6.60
2023-04-26T01:15:48.731Z,6.60
2023-04-26T01:18:15.588Z,6.70
2023-04-26T01:20:43.053Z,6.60
2023-04-26T01:23:10.489Z,6.70
2023-04-26T01:25:38.827Z,6.70
2023-04-26T01:28:05.643Z,6.80
2023-04-26T01:30:32.515Z,6.80
2023-04-26T01:33:03.534Z,6.80
2023-04-26T01:35:30.597Z,6.80
2023-04-26T01:37:57.410Z,6.70
2023-04-26T01:40:24.292Z,6.80
2023-04-26T01:42:51.131Z,6.80
2023-04-26T01:45:18.102Z,6.80
2023-04-26T01:48:03.830Z,6.70
2023-04-26T01:50:32.535Z,6.70
2023-04-26T01:52:59.290Z,6.70
2023-04-26T01:55:26.140Z,6.60
2023-04-26T01:57:52.963Z,6.60
2023-04-26T02:00:20.377Z,6.60
2023-04-26T02:02:49.441Z,6.60
2023-04-26T02:05:16.529Z,6.60
2023-04-26T02:07:43.337Z,6.60
2023-04-26T02:10:10.474Z,6.60
2023-04-26T02:12:37.335Z,6.60
2023-04-26T02:15:04.790Z,6.70
2023-04-26T02:17:31.893Z,6.70
2023-04-26T02:19:58.761Z,6.70
2023-04-26T02:22:25.658Z,6.80
2023-04-26T02:24:52.969Z,6.80
2023-04-26T02:27:20.017Z,6.80
2023-04-26T02:29:47.308Z,6.80
2023-04-26T02:32:14.448Z,6.90
2023-04-26T02:34:41.723Z,6.90
2023-04-26T02:37:08.993Z,6.90
2023-04-26T02:39:36.149Z,6.90
2023-04-26T02:42:03.232Z,7.00
2023-04-26T02:44:31.043Z,7.00
2023-04-26T02:46:58.204Z,7.00
2023-04-26T02:49:25.118Z,7.00
2023-04-26T02:51:52.052Z,7.00
2023-04-26T02:54:19.065Z,7.00
2023-04-26T02:56:45.983Z,7.10
2023-04-26T02:59:12.779Z,7.00
2023-04-26T03:01:39.633Z,7.10
2023-04-26T03:04:06.978Z,7.00
2023-04-26T03:06:35.491Z,7.10
2023-04-26T03:09:02.330Z,7.10
2023-04-26T03:11:29.199Z,7.10
2023-04-26T03:13:56.766Z,7.00
2023-04-26T03:16:23.870Z,7.10
2023-04-26T03:18:51.040Z,7.10
2023-04-26T03:21:18.059Z,7.10
2023-04-26T03:23:45.318Z,7.10
2023-04-26T03:26:13.075Z,7.10
2023-04-26T03:28:41.666Z,7.10
2023-04-26T03:31:08.472Z,7.20
2023-04-26T03:33:35.424Z,7.20
2023-04-26T03:36:02.365Z,7.20
2023-04-26T03:38:29.254Z,7.20
2023-04-26T03:40:55.998Z,7.30
2023-04-26T03:43:23.711Z,7.30
2023-04-26T03:45:51.059Z,7.30
2023-04-26T03:48:17.897Z,7.30
2023-04-26T03:50:45.917Z,7.30
2023-04-26T03:53:12.918Z,7.30
2023-04-26T03:55:40.850Z,7.30
2023-04-26T03:58:08.100Z,7.30
2023-04-26T04:00:37.507Z,7.30
2023-04-26T04:03:05.131Z,7.30
2023-04-26T04:05:32.405Z,7.30
2023-04-26T04:07:59.578Z,7.30
2023-04-26T04:10:26.454Z,7.30
2023-04-26T04:12:54.205Z,7.20
2023-04-26T04:15:21.313Z,7.20
2023-04-26T04:17:49.196Z,7.20
2023-04-26T04:20:16.364Z,7.10
2023-04-26T04:22:43.669Z,7.00
2023-04-26T04:25:10.620Z,7.00
2023-04-26T04:27:38.711Z,6.90
2023-04-26T04:30:07.798Z,6.90
2023-04-26T04:32:36.076Z,6.90
2023-04-26T04:35:03.288Z,6.90
2023-04-26T04:37:32.881Z,6.90
2023-04-26T04:40:00.253Z,7.00
2023-04-26T04:42:28.140Z,7.00
2023-04-26T04:44:57.578Z,7.00
2023-04-26T04:47:25.783Z,7.10
2023-04-26T04:49:53.813Z,7.10
2023-04-26T04:52:21.842Z,7.10
2023-04-26T04:54:48.930Z,7.10
2023-04-26T04:57:16.767Z,7.10
2023-04-26T04:59:45.092Z,7.20
2023-04-26T05:02:12.217Z,7.20
2023-04-26T05:04:39.533Z,7.20
2023-04-26T05:07:06.880Z,7.20
2023-04-26T05:09:35.290Z,7.20
2023-04-26T05:12:03.376Z,7.20
2023-04-26T05:14:31.244Z,7.20
2023-04-26T05:16:58.480Z,7.20
2023-04-26T05:19:26.176Z,7.30
2023-04-26T05:21:53.194Z,7.30
2023-04-26T05:24:20.026Z,7.40
2023-04-26T05:26:46.954Z,7.40
2023-04-26T05:29:20.185Z,7.40
2023-04-26T05:31:59.030Z,7.50
2023-04-26T05:34:51.976Z,7.50
2023-04-26T05:37:18.835Z,7.60
2023-04-26T05:39:45.838Z,7.60
2023-04-26T05:42:12.792Z,7.70
2023-04-26T05:44:40.706Z,7.80
2023-04-26T05:47:08.200Z,7.80
2023-04-26T05:49:34.968Z,7.90
2023-04-26T05:52:03.562Z,8.00
2023-04-26T05:54:30.630Z,8.00
2023-04-26T05:56:59.129Z,8.10
2023-04-26T05:59:27.842Z,8.20
2023-04-26T06:01:54.843Z,8.20
2023-04-26T06:04:21.932Z,8.30
2023-04-26T06:07:01.360Z,8.40
2023-04-26T06:09:28.278Z,8.50
2023-04-26T06:11:55.088Z,8.60
2023-04-26T06:14:29.848Z,8.60
2023-04-26T06:16:59.327Z,8.70
2023-04-26T06:19:28.173Z,8.80
2023-04-26T06:21:57.067Z,8.80
2023-04-26T06:24:25.800Z,8.90
2023-04-26T06:26:52.797Z,9.00
2023-04-26T06:29:21.094Z,9.10
2023-04-26T06:31:48.428Z,9.20
2023-04-26T06:34:15.378Z,9.20
2023-04-26T06:36:42.553Z,9.20
2023-04-26T06:39:10.926Z,9.30
2023-04-26T06:41:38.815Z,9.30
2023-04-26T06:44:05.602Z,9.40
2023-04-26T06:46:32.782Z,9.40
2023-04-26T06:48:59.676Z,9.40
2023-04-26T06:51:26.988Z,9.50
2023-04-26T06:53:53.974Z,9.60
2023-04-26T06:56:21.058Z,9.60
2023-04-26T06:59:02.648Z,9.70
2023-04-26T07:01:29.867Z,9.80
2023-04-26T07:03:59.669Z,9.80
2023-04-26T07:06:26.619Z,9.90
2023-04-26T07:08:53.671Z,10.00
2023-04-26T07:11:21.645Z,10.20
2023-04-26T07:13:49.138Z,10.30
2023-04-26T07:16:15.938Z,10.40
2023-04-26T07:18:42.915Z,10.40
2023-04-26T07:21:09.791Z,10.50
2023-04-26T07:23:36.656Z,10.60
2023-04-26T07:26:04.464Z,10.60
2023-04-26T07:28:33.963Z,10.50
2023-04-26T07:31:01.526Z,10.50
2023-04-26T07:33:30.429Z,10.50
2023-04-26T07:35:58.730Z,10.50
2023-04-26T07:38:25.578Z,10.50
2023-04-26T07:40:52.830Z,10.50
2023-04-26T07:43:20.443Z,10.50
2023-04-26T07:45:47.319Z,10.50
2023-04-26T07:48:14.188Z,10.40
2023-04-26T07:50:41.144Z,10.40
2023-04-26T07:53:08.130Z,10.40
2023-04-26T07:55:34.949Z,10.30
2023-04-26T07:58:02.461Z,10.30
2023-04-26T08:00:29.414Z,10.30
2023-04-26T08:02:56.643Z,10.20
2023-04-26T08:05:23.754Z,10.20
2023-04-26T08:07:50.826Z,10.20
2023-04-26T08:10:17.885Z,10.10
2023-04-26T08:12:44.616Z,10.10
2023-04-26T08:15:12.072Z,10.00
2023-04-26T08:17:39.069Z,10.00
2023-04-26T08:20:06.992Z,10.00
2023-04-26T08:22:33.793Z,10.00
2023-04-26T08:25:00.875Z,10.00
2023-04-26T08:27:28.165Z,10.00
2023-04-26T08:29:55.023Z,10.10
2023-04-26T08:32:22.205Z,10.10
2023-04-26T08:34:49.072Z,10.20
2023-04-26T08:37:15.891Z,10.30
2023-04-26T08:39:42.694Z,10.30
2023-04-26T08:42:16.719Z,10.40
2023-04-26T08:44:44.157Z,10.50
2023-04-26T08:47:37.498Z,10.50
2023-04-26T08:50:04.777Z,10.50
2023-04-26T08:52:31.952Z,10.60
2023-04-26T08:54:59.489Z,10.50
2023-04-26T08:57:26.776Z,10.50
2023-04-26T08:59:53.799Z,10.50
2023-04-26T09:02:21.653Z,10.50
2023-04-26T09:04:49.116Z,10.50
2023-04-26T09:07:27.264Z,10.50
2023-04-26T09:09:54.043Z,10.50
2023-04-26T09:12:21.311Z,10.60
2023-04-26T09:14:48.220Z,10.60
2023-04-26T09:17:38.041Z,10.60
2023-04-26T09:20:25.935Z,10.60
2023-04-26T09:23:09.106Z,10.70
2023-04-26T09:25:36.077Z,10.80
2023-04-26T09:28:03.703Z,10.80
2023-04-26T09:30:31.330Z,10.90
2023-04-26T09:33:06.829Z,11.00
2023-04-26T09:35:33.785Z,11.10
2023-04-26T09:38:09.690Z,11.20
2023-04-26T09:40:42.648Z,11.30
2023-04-26T09:43:13.133Z,11.40
2023-04-26T09:45:56.865Z,11.50
2023-04-26T09:48:30.704Z,11.60
2023-04-26T09:51:10.186Z,11.80
2023-04-26T09:53:41.317Z,12.00
2023-04-26T09:56:18.932Z,12.10
2023-04-26T09:59:00.633Z,12.30
2023-04-26T10:01:31.226Z,12.70
2023-04-26T10:03:58.429Z,13.00
2023-04-26T10:06:25.695Z,13.30
2023-04-26T10:08:52.731Z,13.40
2023-04-26T10:11:19.746Z,13.60
2023-04-26T10:13:46.539Z,13.90
2023-04-26T10:16:13.432Z,14.10
2023-04-26T10:18:40.612Z,14.40
2023-04-26T10:21:35.293Z,14.60
2023-04-26T10:24:02.906Z,14.80
2023-04-26T10:26:56.956Z,14.80
2023-04-26T10:29:24.802Z,14.80
2023-04-26T10:32:10.622Z,14.80
2023-04-26T10:34:37.619Z,14.70
2023-04-26T10:37:14.746Z,14.60
2023-04-26T10:39:42.527Z,14.60
2023-04-26T10:42:27.392Z,14.60
2023-04-26T10:45:00.890Z,14.50
2023-04-26T10:47:37.539Z,14.40
2023-04-26T10:50:11.106Z,14.30
2023-04-26T10:53:05.879Z,14.20
2023-04-26T10:55:51.499Z,14.20
2023-04-26T10:58:28.225Z,14.30
2023-04-26T11:01:04.949Z,14.30
2023-04-26T11:03:32.072Z,14.20
2023-04-26T11:05:59.130Z,14.30
2023-04-26T11:08:31.735Z,14.30
2023-04-26T11:11:02.397Z,14.50
2023-04-26T11:13:32.638Z,14.60
2023-04-26T11:16:07.257Z,14.70
2023-04-26T11:18:34.757Z,14.90
2023-04-26T11:21:01.595Z,14.90
2023-04-26T11:23:29.634Z,15.00
2023-04-26T11:26:00.325Z,15.10
2023-04-26T11:28:27.159Z,15.20
2023-04-26T11:30:54.157Z,15.30
2023-04-26T11:33:24.652Z,15.30
2023-04-26T11:35:52.325Z,15.30
2023-04-26T11:38:22.121Z,15.30
2023-04-26T11:41:02.454Z,15.30
2023-04-26T11:43:32.331Z,15.30
2023-04-26T11:46:02.470Z,15.30
2023-04-26T11:48:30.047Z,15.20
2023-04-26T11:51:00.620Z,15.20
2023-04-26T11:53:40.839Z,15.10
2023-04-26T11:56:20.777Z,15.10
2023-04-26T11:58:48.458Z,15.00
2023-04-26T12:01:41.549Z,15.10
2023-04-26T12:04:10.499Z,15.00
2023-04-26T12:06:44.654Z,15.00
2023-04-26T12:09:12.069Z,14.80
2023-04-26T12:11:39.456Z,14.70
2023-04-26T12:14:07.819Z,14.60
2023-04-26T12:16:37.864Z,14.50
2023-04-26T12:19:06.522Z,14.40
2023-04-26T12:21:43.874Z,14.30
2023-04-26T12:24:29.601Z,14.30
2023-04-26T12:26:56.558Z,14.50
2023-04-26T12:29:23.370Z,14.60
2023-04-26T12:31:50.224Z,14.90
2023-04-26T12:34:17.100Z,15.10
2023-04-26T12:36:44.539Z,15.50
2023-04-26T12:39:13.269Z,15.70
2023-04-26T12:41:41.150Z,15.90
2023-04-26T12:44:08.608Z,16.00
2023-04-26T12:46:36.030Z,16.10
2023-04-26T12:49:03.538Z,16.10
2023-04-26T12:51:31.953Z,16.20
2023-04-26T12:53:59.010Z,16.30
2023-04-26T12:56:25.870Z,16.30
2023-04-26T12:58:52.636Z,16.20
2023-04-26T13:01:19.559Z,16.20
2023-04-26T13:03:46.764Z,16.10
2023-04-26T13:06:13.727Z,16.10
2023-04-26T13:08:41.672Z,16.20
2023-04-26T13:11:08.474Z,16.20
2023-04-26T13:13:43.186Z,16.10
2023-04-26T13:16:12.440Z,16.10
2023-04-26T13:18:40.226Z,16.00
2023-04-26T13:21:07.142Z,15.90
2023-04-26T13:23:33.975Z,15.90
2023-04-26T13:26:00.758Z,15.80
2023-04-26T13:28:27.577Z,15.80
2023-04-26T13:30:55.795Z,15.80
2023-04-26T13:33:22.910Z,15.70
2023-04-26T13:35:49.969Z,15.70
2023-04-26T13:38:17.327Z,15.70
2023-04-26T13:40:44.809Z,15.60
2023-04-26T13:43:11.730Z,15.60
2023-04-26T13:45:38.787Z,15.60
2023-04-26T13:48:05.897Z,15.60
2023-04-26T13:50:32.792Z,15.70
2023-04-26T13:53:00.050Z,15.90
2023-04-26T13:55:26.845Z,16.20
2023-04-26T13:57:53.824Z,16.40
2023-04-26T14:00:21.149Z,16.70
2023-04-26T14:02:48.596Z,17.20
2023-04-26T14:05:16.611Z,17.40
2023-04-26T14:07:43.576Z,17.50
2023-04-26T14:10:10.697Z,17.50
2023-04-26T14:12:37.500Z,17.60
2023-04-26T14:15:06.101Z,17.70
2023-04-26T14:17:33.240Z,17.90
2023-04-26T14:20:00.210Z,18.10
2023-04-26T14:22:27.239Z,18.30
2023-04-26T14:24:54.026Z,18.40
2023-04-26T14:27:20.995Z,18.60
2023-04-26T14:29:47.833Z,18.70
2023-04-26T14:32:14.928Z,18.90
2023-04-26T14:34:42.623Z,19.00
2023-04-26T14:37:09.447Z,19.10
2023-04-26T14:39:37.222Z,19.10
2023-04-26T14:42:04.362Z,18.90
2023-04-26T14:44:31.229Z,18.90
2023-04-26T14:46:58.315Z,18.80
2023-04-26T14:49:25.319Z,18.60
2023-04-26T14:51:53.707Z,18.40
2023-04-26T14:54:21.115Z,18.30
2023-04-26T14:56:48.494Z,18.20
2023-04-26T14:59:15.478Z,17.90
2023-04-26T15:01:42.493Z,17.60
2023-04-26T15:04:09.394Z,17.30
2023-04-26T15:06:36.547Z,17.00
2023-04-26T15:09:04.355Z,16.70
2023-04-26T15:11:31.458Z,16.50
2023-04-26T15:13:58.259Z,16.30
2023-04-26T15:16:25.187Z,16.10
2023-04-26T15:18:52.117Z,15.90
2023-04-26T15:21:21.266Z,15.90
2023-04-26T15:23:48.133Z,15.90
2023-04-26T15:26:14.930Z,15.90
2023-04-26T15:28:41.755Z,15.80
2023-04-26T15:31:09.516Z,15.80
2023-04-26T15:33:36.641Z,15.90
2023-04-26T15:36:03.703Z,15.90
2023-04-26T15:38:30.696Z,16.00
2023-04-26T15:40:59.037Z,16.00
2023-04-26T15:43:25.928Z,15.90
2023-04-26T15:45:53.034Z,15.80
2023-04-26T15:48:19.797Z,15.80
2023-04-26T15:50:46.617Z,15.80
2023-04-26T15:53:13.380Z,15.80
2023-04-26T15:55:40.322Z,15.80
2023-04-26T15:58:07.698Z,15.80
2023-04-26T16:00:36.380Z,15.80
2023-04-26T16:03:03.462Z,15.70
2023-04-26T16:05:31.764Z,15.60
2023-04-26T16:07:59.711Z,15.60
2023-04-26T16:10:26.704Z,15.50
2023-04-26T16:12:53.564Z,15.40
2023-04-26T16:15:20.671Z,15.40
2023-04-26T16:17:47.568Z,15.30
2023-04-26T16:20:15.227Z,15.20
2023-04-26T16:22:45.030Z,15.10
2023-04-26T16:25:12.110Z,15.00
2023-04-26T16:27:38.965Z,14.90
2023-04-26T16:30:06.443Z,14.90
2023-04-26T16:32:34.078Z,14.80
2023-04-26T16:35:01.090Z,14.70
2023-04-26T16:37:28.008Z,14.70
2023-04-26T16:39:55.911Z,14.60
2023-04-26T16:42:22.993Z,14.50
2023-04-26T16:44:49.873Z,14.40
2023-04-26T16:47:16.749Z,14.40
2023-04-26T16:49:43.498Z,14.50
2023-04-26T16:52:10.438Z,14.60
2023-04-26T16:54:37.363Z,14.70
2023-04-26T16:57:04.545Z,14.90
2023-04-26T16:59:31.429Z,14.90
2023-04-26T17:01:58.337Z,15.00
2023-04-26T17:04:26.360Z,15.00
2023-04-26T17:06:54.488Z,15.00
2023-04-26T17:09:21.473Z,15.00
2023-04-26T17:11:49.855Z,15.10
2023-04-26T17:14:16.764Z,15.10
2023-04-26T17:16:43.839Z,15.10
2023-04-26T17:19:10.945Z,15.00
2023-04-26T17:21:37.809Z,14.90
2023-04-26T17:24:04.766Z,14.90
2023-04-26T17:26:31.685Z,14.70
2023-04-26T17:28:58.621Z,14.60
2023-04-26T17:31:25.608Z,14.50
2023-04-26T17:33:52.477Z,14.40
2023-04-26T17:36:19.490Z,14.30
2023-04-26T17:38:46.320Z,14.10
2023-04-26T17:41:13.544Z,14.00
2023-04-26T17:43:40.539Z,13.90
2023-04-26T17:46:07.519Z,13.90
2023-04-26T17:48:34.385Z,13.80
2023-04-26T17:51:01.309Z,13.70
2023-04-26T17:53:28.172Z,13.60
2023-04-26T17:55:55.352Z,13.60
2023-04-26T17:58:24.025Z,13.50
2023-04-26T18:00:50.906Z,13.40
2023-04-26T18:03:17.963Z,13.40
2023-04-26T18:05:45.081Z,13.30
2023-04-26T18:08:11.855Z,13.20
2023-04-26T18:10:38.701Z,13.10
2023-04-26T18:13:05.605Z,13.10
2023-04-26T18:15:32.493Z,13.10
2023-04-26T18:17:59.353Z,13.00
2023-04-26T18:20:26.923Z,13.00
2023-04-26T18:22:53.722Z,12.90
2023-04-26T18:25:20.509Z,12.90
2023-04-26T18:27:47.324Z,12.80
2023-04-26T18:30:14.222Z,12.80
2023-04-26T18:32:41.322Z,12.70
2023-04-26T18:35:09.132Z,12.70
2023-04-26T18:37:36.062Z,12.70
2023-04-26T18:40:04.828Z,12.60
2023-04-26T18:42:31.648Z,12.60
2023-04-26T18:44:59.414Z,12.40
2023-04-26T18:47:26.797Z,12.40
2023-04-26T18:49:53.609Z,12.40
2023-04-26T18:52:20.426Z,12.40
2023-04-26T18:54:47.234Z,12.40
2023-04-26T18:57:14.793Z,12.40
2023-04-26T18:59:41.606Z,12.40
2023-04-26T19:02:08.674Z,12.40
2023-04-26T19:04:35.783Z,12.40
2023-04-26T19:07:02.791Z,12.30
2023-04-26T19:09:39.855Z,12.30
2023-04-26T19:12:17.589Z,12.30
2023-04-26T19:14:44.473Z,12.30
2023-04-26T19:17:11.351Z,12.20
2023-04-26T19:19:38.224Z,12.20
2023-04-26T19:22:05.156Z,12.10
2023-04-26T19:24:31.993Z,12.10
2023-04-26T19:26:58.794Z,12.00
2023-04-26T19:29:25.778Z,12.00
2023-04-26T19:31:52.658Z,12.00
2023-04-26T19:34:20.119Z,12.00
2023-04-26T19:36:47.745Z,12.00
2023-04-26T19:39:16.822Z,11.90
2023-04-26T19:41:44.242Z,11.90
2023-04-26T19:44:13.110Z,11.90
2023-04-26T19:46:41.369Z,11.90
2023-04-26T19:49:08.920Z,11.90
2023-04-26T19:51:39.356Z,11.80
2023-04-26T19:54:06.514Z,11.80
2023-04-26T19:56:33.549Z,11.80
2023-04-26T19:59:01.138Z,11.70
2023-04-26T20:01:30.295Z,11.80
2023-04-26T20:03:57.949Z,11.70
2023-04-26T20:06:25.567Z,11.70
2023-04-26T20:08:53.496Z,11.70
2023-04-26T20:11:20.395Z,11.70
2023-04-26T20:13:48.419Z,11.70
2023-04-26T20:16:15.664Z,11.70
2023-04-26T20:18:43.807Z,11.70
2023-04-26T20:21:15.467Z,11.70
2023-04-26T20:23:43.011Z,11.70
2023-04-26T20:26:11.391Z,11.60
2023-04-26T20:28:42.534Z,11.60
2023-04-26T20:31:09.604Z,11.60
2023-04-26T20:33:36.731Z,11.60
2023-04-26T20:36:04.889Z,11.60
2023-04-26T20:38:32.108Z,11.60
2023-04-26T20:41:00.476Z,11.60
2023-04-26T20:43:30.260Z,11.50
2023-04-26T20:45:57.625Z,11.50
2023-04-26T20:48:26.084Z,11.50
2023-04-26T20:50:58.801Z,11.50
2023-04-26T20:53:25.904Z,11.50
2023-04-26T20:55:53.748Z,11.40
2023-04-26T20:58:20.804Z,11.40
2023-04-26T21:00:55.187Z,11.40
2023-04-26T21:03:22.783Z,11.30
2023-04-26T21:05:49.809Z,11.30
2023-04-26T21:08:16.679Z,11.30
2023-04-26T21:10:43.602Z,11.30
2023-04-26T21:13:10.399Z,11.30
2023-04-26T21:15:37.319Z,11.30
2023-04-26T21:18:04.461Z,11.30
2023-04-26T21:20:31.450Z,11.30
2023-04-26T21:22:58.340Z,11.30
2023-04-26T21:25:25.143Z,11.30
2023-04-26T21:27:51.931Z,11.20
2023-04-26T21:30:18.824Z,11.20
2023-04-26T21:32:45.991Z,11.20
2023-04-26T21:35:13.069Z,11.20
2023-04-26T21:37:39.913Z,11.10
2023-04-26T21:40:08.079Z,11.10
2023-04-26T21:42:34.909Z,11.10
2023-04-26T21:45:01.771Z,11.00
2023-04-26T21:47:28.637Z,11.00
2023-04-26T21:49:55.799Z,11.00
2023-04-26T21:52:22.580Z,11.00
2023-04-26T21:54:50.644Z,11.00
2023-04-26T21:57:21.522Z,11.00
2023-04-26T21:59:50.047Z,11.00
2023-04-26T22:02:17.089Z,11.00
2023-04-26T22:04:44.001Z,11.00
2023-04-26T22:07:10.910Z,11.00
2023-04-26T22:09:37.661Z,11.00
2023-04-26T22:12:04.653Z,11.00
2023-04-26T22:14:31.645Z,10.90
2023-04-26T22:16:58.435Z,10.90
2023-04-26T22:19:25.266Z,10.80
2023-04-26T22:21:53.389Z,10.80
2023-04-26T22:24:21.834Z,10.70
2023-04-26T22:26:48.600Z,10.60
2023-04-26T22:29:15.605Z,10.50
2023-04-26T22:31:42.475Z,10.50
2023-04-26T22:34:09.357Z,10.40
2023-04-26T22:36:36.270Z,10.30
2023-04-26T22:39:03.241Z,10.20
2023-04-26T22:41:30.165Z,10.20
2023-04-26T22:43:57.313Z,10.10
2023-04-26T22:46:24.602Z,10.10
2023-04-26T22:48:51.428Z,10.10
2023-04-26T22:51:18.268Z,10.00
2023-04-26T22:53:45.023Z,10.00
2023-04-26T22:56:11.848Z,9.90
2023-04-26T22:58:38.722Z,9.80
2023-04-26T23:01:05.637Z,9.70
2023-04-26T23:03:35.928Z,9.70
2023-04-26T23:06:06.261Z,9.60
2023-04-26T23:08:33.059Z,9.50
2023-04-26T23:11:00.149Z,9.40
2023-04-26T23:13:27.013Z,9.30
2023-04-26T23:15:53.857Z,9.20
2023-04-26T23:18:20.786Z,9.10
2023-04-26T23:20:47.737Z,9.10
2023-04-26T23:23:14.470Z,8.90
2023-04-26T23:25:42.178Z,8.80
2023-04-26T23:28:09.186Z,8.80
2023-04-26T23:30:36.197Z,8.70
2023-04-26T23:33:03.191Z,8.70
2023-04-26T23:35:30.163Z,8.60
2023-04-26T23:37:57.183Z,8.50
2023-04-26T23:40:24.113Z,8.50
2023-04-26T23:42:51.258Z,8.40
2023-04-26T23:45:19.225Z,8.40
2023-04-26T23:47:46.186Z,8.30
2023-04-26T23:50:13.012Z,8.30
2023-04-26T23:52:39.820Z,8.20
2023-04-26T23:55:08.151Z,8.20
2023-04-26T23:57:35.127Z,8.20
